CheckWX is a tool to help pilots better visualize weather data.  It is not intended as a substitute for an official pre-flight weather briefing.

15:40:44 UTC

KIYA METAR
Abbeville Chris Crusta Memorial
Abbeville, Louisiana, USA
Current

6 mins ago

KIYA 131535Z AUTO 25005KT 10SM SCT024 BKN029 31/24 A2996 RMK AO2 T03140239
Observed
Jul-13 @ 15:35 UTC
Wind
  • 250° at 5 KTS
Visibility
10 SM
Flight Rules
MVFR
Cloud Levels
  • Scattered at 2,400' AGL
  • Broken at 2,900' AGL
Temperature
31°C / 88°F
Dewpoint
24°C / 75°F
Humidity
66%
Altimeter
29.96" Hg
Pressure
1014.52 hPa
Previous

26 mins ago

KIYA 131515Z AUTO 26007KT 10SM SCT022 BKN029 30/24 A2996 RMK AO2 T03040237
Observed
Jul-13 @ 15:15 UTC
Wind
  • 260° at 7 KTS
Visibility
10 SM
Flight Rules
MVFR
Cloud Levels
  • Scattered at 2,200' AGL
  • Broken at 2,900' AGL
Temperature
30°C / 86°F
Dewpoint
24°C / 75°F
Humidity
70%
Altimeter
29.96" Hg
Pressure
1014.52 hPa
Previous

46 mins ago

KIYA 131455Z AUTO 23008KT 10SM SCT018 SCT027 31/25 A2995 RMK AO2 T03100246
Observed
Jul-13 @ 14:55 UTC
Wind
  • 230° at 8 KTS
Visibility
10 SM
Flight Rules
VFR
Cloud Levels
  • Scattered at 1,800' AGL
  • Scattered at 2,700' AGL
Temperature
31°C / 88°F
Dewpoint
25°C / 77°F
Humidity
70%
Altimeter
29.95" Hg
Pressure
1014.22 hPa